Time;durP1;ratioP1;P1;durP2;ratioP2;P2;SDS_P1;SDS_P2;PMS_P1;PMS_P2;Temp;Humidity;BMP_temperature;BMP_pressure;BME280_temperature;BME280_humidity;BME280_pressure;Samples;Min_cycle;Max_cycle;Signal;HPM_P1;HPM_P2
2022/05/24 00:01:29;;;;;;;;;;;;;;;15.16;79.03;100018.28;5092636;28;19980;-67
2022/05/24 00:03:56;;;;;;;;;;;;;;;15.15;79.02;100015.78;5089704;28;20374;-67
2022/05/24 00:06:23;;;;;;;;;;;;;;;15.13;79.39;100010.56;5090956;28;19927;-67
2022/05/24 00:08:48;;;;;;;;;;;;;;;15.06;79.23;100006.78;5091036;28;20373;-67
2022/05/24 00:11:15;;;;;;;;;;;;;;;15.01;79.23;100011.72;5090595;28;19912;-67
2022/05/24 00:13:40;;;;;;;;;;;;;;;14.99;78.19;100005.66;5092191;28;19918;-67
2022/05/24 00:16:08;;;;;;;;;;;;;;;14.97;78.66;99997.78;5092309;28;19912;-67
2022/05/24 00:18:33;;;;;;;;;;;;;;;14.95;78.50;99998.91;5092068;28;19916;-67
2022/05/24 00:21:00;;;;;;;;;;;;;;;15.01;77.94;100006.38;5092272;28;20382;-67
2022/05/24 00:23:27;;;;;;;;;;;;;;;14.86;78.44;100007.84;5091883;28;19912;-67
2022/05/24 00:25:53;;;;;;;;;;;;;;;14.84;78.53;100015.16;5090177;28;20252;-67
2022/05/24 00:28:19;;;;;;;;;;;;;;;14.80;78.41;100011.94;5090756;28;19951;-67
2022/05/24 00:30:46;;;;;;;;;;;;;;;14.86;77.63;100018.53;5090336;28;19959;-67
2022/05/24 00:33:11;;;;;;;;;;;;;;;14.62;79.09;100009.16;5091103;28;19912;-67
2022/05/24 00:35:37;;;;;;;;;;;;;;;14.64;78.11;100004.47;5095110;28;20376;-67
2022/05/24 00:38:02;;;;;;;;;;;;;;;14.54;78.30;100003.66;5090220;28;19912;-68
2022/05/24 00:40:38;;;;;;;;;;;;;;;14.61;77.90;100002.09;5091748;28;19965;-67
2022/05/24 00:43:07;;;;;;;;;;;;;;;14.51;78.20;100004.78;5090859;28;19912;-67
2022/05/24 00:45:46;;;;;;;;;;;;;;;14.42;78.02;100002.94;5091561;28;19995;-67
2022/05/24 00:48:18;;;;;;;;;;;;;;;14.32;79.10;100012.78;5088876;28;20413;-67
2022/05/24 00:50:47;;;;;;;;;;;;;;;14.37;78.30;100007.03;5090334;28;19994;-67
2022/05/24 00:53:20;;;;;;;;;;;;;;;14.24;77.95;100010.84;5087910;28;19934;-67
2022/05/24 00:55:48;;;;;;;;;;;;;;;14.15;78.77;100006.34;5091892;28;19947;-67
2022/05/24 00:58:25;;;;;;;;;;;;;;;14.17;78.00;99998.16;5091732;28;20002;-67
2022/05/24 01:00:52;;;;;;;;;;;;;;;14.18;78.36;100008.72;5091410;28;19912;-67
2022/05/24 01:03:17;;;;;;;;;;;;;;;14.06;78.93;100002.66;5094136;28;20429;-67
2022/05/24 01:05:43;;;;;;;;;;;;;;;14.15;77.75;99995.63;5092980;28;19995;-67
2022/05/24 01:08:10;;;;;;;;;;;;;;;13.99;78.83;99995.34;5096323;28;20011;-67
2022/05/24 01:10:45;;;;;;;;;;;;;;;14.01;78.12;100004.06;5094883;28;19934;-67
2022/05/24 01:13:14;;;;;;;;;;;;;;;13.96;78.27;99999.13;5094907;28;20431;-67
2022/05/24 01:15:43;;;;;;;;;;;;;;;13.95;78.10;100001.97;5095798;28;19931;-67
2022/05/24 01:18:11;;;;;;;;;;;;;;;13.95;77.85;99991.25;5095828;28;19937;-67
2022/05/24 01:20:38;;;;;;;;;;;;;;;13.89;77.87;99995.34;5095139;28;19919;-67
2022/05/24 01:23:09;;;;;;;;;;;;;;;13.91;77.66;100000.53;5093843;28;20381;-67
2022/05/24 01:25:43;;;;;;;;;;;;;;;13.88;77.60;99996.31;5096841;28;19916;-67
2022/05/24 01:28:11;;;;;;;;;;;;;;;13.87;77.78;100005.31;5093018;28;19916;-67
2022/05/24 01:30:36;;;;;;;;;;;;;;;13.89;77.52;100010.53;5092006;28;19912;-67
2022/05/24 01:38:32;;;;;;;;;;;;;;;13.74;77.27;100010.94;5096401;28;19926;-67
2022/05/24 01:40:59;;;;;;;;;;;;;;;13.77;76.85;100012.50;5093874;28;19912;-67
2022/05/24 01:43:26;;;;;;;;;;;;;;;13.78;77.28;100016.84;5094181;28;20006;-67
2022/05/24 01:45:53;;;;;;;;;;;;;;;13.71;77.32;100010.38;5093826;28;19920;-67
2022/05/24 01:48:21;;;;;;;;;;;;;;;13.67;77.43;100009.78;5094590;28;20183;-67
2022/05/24 01:50:53;;;;;;;;;;;;;;;13.68;77.41;100014.16;5094854;28;19985;-67
2022/05/24 01:53:21;;;;;;;;;;;;;;;13.62;76.96;100010.22;5093353;28;19912;-67
2022/05/24 01:55:54;;;;;;;;;;;;;;;13.63;76.99;100011.88;5094267;28;20386;-67
2022/05/24 01:58:23;;;;;;;;;;;;;;;13.62;77.70;100004.03;5092591;28;19916;-67
2022/05/24 02:01:11;;;;;;;;;;;;;;;13.60;77.40;99997.97;5069522;28;19913;-67
2022/05/24 02:03:36;;;;;;;;;;;;;;;13.62;76.84;100002.19;5075158;28;19912;-67
2022/05/24 02:06:17;;;;;;;;;;;;;;;13.70;76.47;99998.81;5067576;28;20005;-67
2022/05/24 02:08:42;;;;;;;;;;;;;;;13.53;76.94;99994.13;5070071;28;19912;-67
2022/05/24 02:11:08;;;;;;;;;;;;;;;13.52;76.62;100012.00;5034413;28;20017;-67
2022/05/24 02:13:35;;;;;;;;;;;;;;;13.52;76.95;100006.66;5069567;28;20010;-67
2022/05/24 02:16:03;;;;;;;;;;;;;;;13.46;76.77;100017.88;5052069;28;20073;-67
2022/05/24 02:18:29;;;;;;;;;;;;;;;13.44;76.33;100025.19;5067374;28;20015;-67
2022/05/24 02:20:55;;;;;;;;;;;;;;;13.44;76.12;100006.47;5068171;28;19977;-67
2022/05/24 02:23:20;;;;;;;;;;;;;;;13.33;76.49;100023.47;5082104;28;19924;-67
2022/05/24 02:25:58;;;;;;;;;;;;;;;13.34;76.38;100029.66;5052068;28;19916;-67
2022/05/24 02:28:25;;;;;;;;;;;;;;;13.26;76.50;100024.13;5068730;28;19920;-67
2022/05/24 02:30:52;;;;;;;;;;;;;;;13.23;76.42;100017.19;5070622;28;19913;-67
2022/05/24 02:33:19;;;;;;;;;;;;;;;13.21;76.33;100021.84;5094009;28;20392;-67
2022/05/24 02:35:45;;;;;;;;;;;;;;;13.22;76.16;100023.53;5094582;28;20631;-67
2022/05/24 02:38:10;;;;;;;;;;;;;;;13.25;76.29;100031.31;5092876;28;19919;-67
2022/05/24 02:43:20;;;;;;;;;;;;;;;13.22;76.29;100020.00;5092640;28;19927;-67
2022/05/24 02:45:45;;;;;;;;;;;;;;;13.25;76.09;100015.28;5091815;28;19915;-67
2022/05/24 02:48:11;;;;;;;;;;;;;;;13.22;76.25;100023.53;5093374;28;19923;-67
2022/05/24 02:50:36;;;;;;;;;;;;;;;13.30;75.99;100015.72;5091236;28;19924;-67
2022/05/24 02:53:02;;;;;;;;;;;;;;;13.38;75.55;100025.72;5092261;28;19912;-67
2022/05/24 02:55:27;;;;;;;;;;;;;;;13.26;77.28;100034.81;5092358;28;19915;-67
2022/05/24 02:57:53;;;;;;;;;;;;;;;13.37;75.96;100024.03;5096370;28;19968;-67
2022/05/24 03:00:20;;;;;;;;;;;;;;;13.22;76.54;100015.50;5093085;28;20460;-67
2022/05/24 03:02:45;;;;;;;;;;;;;;;13.22;76.72;100007.50;5093727;28;20277;-67
2022/05/24 03:05:12;;;;;;;;;;;;;;;13.26;76.05;100010.78;5092198;28;19915;-67
2022/05/24 03:10:24;;;;;;;;;;;;;;;13.13;76.50;100021.66;5091846;28;19923;-67
2022/05/24 03:15:36;;;;;;;;;;;;;;;13.08;76.76;100011.38;5094053;28;19965;-67
2022/05/24 03:18:01;;;;;;;;;;;;;;;13.17;76.34;100012.41;5091615;28;20607;-67
2022/05/24 03:20:26;;;;;;;;;;;;;;;13.11;76.64;100023.63;5094157;28;19920;-67
2022/05/24 03:22:54;;;;;;;;;;;;;;;13.07;77.53;100023.03;5092133;28;19912;-67
2022/05/24 03:25:21;;;;;;;;;;;;;;;13.11;76.82;100036.97;5092796;28;20389;-67
2022/05/24 03:27:48;;;;;;;;;;;;;;;13.07;77.25;100032.88;5093228;28;19911;-67
2022/05/24 03:30:14;;;;;;;;;;;;;;;13.03;76.83;100034.09;5091453;28;20318;-67
2022/05/24 03:32:39;;;;;;;;;;;;;;;12.99;77.35;100036.19;5092115;28;19919;-67
2022/05/24 03:35:06;;;;;;;;;;;;;;;12.98;77.68;100036.34;5096454;28;20302;-67
2022/05/24 03:37:32;;;;;;;;;;;;;;;13.00;77.08;100029.91;5092898;28;19950;-67
2022/05/24 03:39:58;;;;;;;;;;;;;;;13.02;77.67;100027.09;5093030;28;20397;-67
2022/05/24 03:42:23;;;;;;;;;;;;;;;13.12;76.49;100025.31;5091319;28;19939;-67
2022/05/24 03:44:49;;;;;;;;;;;;;;;12.96;77.28;100025.78;5091292;28;19920;-67
2022/05/24 03:47:14;;;;;;;;;;;;;;;13.06;76.67;100023.16;5094245;28;19923;-67
2022/05/24 03:49:39;;;;;;;;;;;;;;;13.19;76.13;100027.31;5092392;28;19927;-67
2022/05/24 03:52:05;;;;;;;;;;;;;;;12.99;77.05;100030.84;5090067;28;19931;-67
2022/05/24 03:54:31;;;;;;;;;;;;;;;12.90;77.43;100053.00;5089961;28;19916;-67
2022/05/24 03:59:40;;;;;;;;;;;;;;;12.88;77.68;100061.16;5091839;28;19960;-67
2022/05/24 04:02:06;;;;;;;;;;;;;;;13.00;76.62;100058.38;5092895;28;19998;-67
2022/05/24 04:04:31;;;;;;;;;;;;;;;12.90;77.62;100077.03;5089181;28;20173;-67
2022/05/24 04:06:57;;;;;;;;;;;;;;;12.88;77.43;100078.97;5090106;28;20381;-67
2022/05/24 04:09:22;;;;;;;;;;;;;;;12.88;77.73;100086.97;5074104;28;19920;-67
2022/05/24 04:11:48;;;;;;;;;;;;;;;12.90;77.54;100087.72;5091209;28;19916;-67
2022/05/24 04:14:16;;;;;;;;;;;;;;;12.93;77.06;100103.47;5090059;28;19912;-67
2022/05/24 04:16:41;;;;;;;;;;;;;;;12.98;76.86;100095.91;5088545;28;19916;-67
2022/05/24 04:19:07;;;;;;;;;;;;;;;12.86;77.68;100095.13;5090178;28;19916;-67
2022/05/24 04:21:32;;;;;;;;;;;;;;;12.92;77.85;100075.94;5091194;28;19911;-67
2022/05/24 04:23:58;;;;;;;;;;;;;;;12.86;77.04;100057.78;5088275;28;19977;-67
2022/05/24 04:26:24;;;;;;;;;;;;;;;12.81;77.34;100048.47;5090290;28;19911;-67
2022/05/24 04:28:49;;;;;;;;;;;;;;;12.89;77.29;100062.00;5088899;28;19965;-67
2022/05/24 04:31:15;;;;;;;;;;;;;;;12.88;77.18;100068.28;5089170;28;19919;-67
2022/05/24 04:33:41;;;;;;;;;;;;;;;12.81;77.94;100078.66;5093823;28;19998;-67
2022/05/24 04:36:07;;;;;;;;;;;;;;;12.82;77.31;100098.19;5093976;28;19916;-67
2022/05/24 04:38:32;;;;;;;;;;;;;;;12.81;77.65;100118.69;5095111;28;19912;-67
2022/05/24 04:43:42;;;;;;;;;;;;;;;12.81;77.35;100099.16;5091440;28;19919;-67
2022/05/24 04:46:07;;;;;;;;;;;;;;;12.89;76.76;100086.03;5095503;28;19912;-67
2022/05/24 04:48:33;;;;;;;;;;;;;;;12.79;77.82;100098.44;5092768;28;19958;-67
2022/05/24 04:50:59;;;;;;;;;;;;;;;12.78;77.28;100100.25;5097189;28;19916;-67
2022/05/24 04:53:25;;;;;;;;;;;;;;;12.75;77.27;100099.69;5094255;28;20339;-67
2022/05/24 04:55:50;;;;;;;;;;;;;;;12.74;77.87;100106.84;5095397;28;19918;-67
2022/05/24 04:58:16;;;;;;;;;;;;;;;12.78;76.96;100115.44;5077319;28;20038;-67
2022/05/24 05:00:44;;;;;;;;;;;;;;;12.77;77.70;100127.94;5094798;28;20822;-67
2022/05/24 05:03:10;;;;;;;;;;;;;;;12.88;76.41;100132.34;5092949;28;19912;-67
2022/05/24 05:05:37;;;;;;;;;;;;;;;12.84;76.44;100141.59;5094631;28;20263;-67
2022/05/24 05:08:02;;;;;;;;;;;;;;;12.80;77.44;100141.03;5095130;28;19965;-67
2022/05/24 05:10:27;;;;;;;;;;;;;;;12.80;77.47;100142.84;5095262;28;20263;-67
2022/05/24 05:12:53;;;;;;;;;;;;;;;12.79;78.24;100154.47;5093265;28;19962;-67
2022/05/24 05:15:19;;;;;;;;;;;;;;;12.82;77.65;100155.06;5094205;28;19915;-67
2022/05/24 05:17:44;;;;;;;;;;;;;;;12.78;77.82;100152.78;5096282;28;20501;-67
2022/05/24 05:20:10;;;;;;;;;;;;;;;12.71;77.65;100150.63;5093147;28;19940;-67
2022/05/24 05:22:37;;;;;;;;;;;;;;;12.73;77.59;100148.69;5094026;28;20317;-67
2022/05/24 05:25:02;;;;;;;;;;;;;;;12.77;77.26;100149.28;5093166;28;19972;-67
2022/05/24 05:27:28;;;;;;;;;;;;;;;12.71;77.50;100139.97;5096022;28;19992;-67
2022/05/24 05:32:37;;;;;;;;;;;;;;;12.78;76.72;100158.97;5093601;28;20442;-67
2022/05/24 05:35:03;;;;;;;;;;;;;;;12.71;77.27;100141.78;5077652;28;19916;-67
2022/05/24 05:37:29;;;;;;;;;;;;;;;12.77;76.73;100140.44;5094087;28;20393;-67
2022/05/24 05:39:55;;;;;;;;;;;;;;;12.76;76.64;100136.91;5090912;28;20392;-67
2022/05/24 05:42:21;;;;;;;;;;;;;;;12.85;76.15;100145.94;5076320;28;19970;-67
2022/05/24 05:44:49;;;;;;;;;;;;;;;12.84;75.93;100139.78;5096153;28;20271;-67
2022/05/24 05:47:15;;;;;;;;;;;;;;;12.68;76.60;100153.56;5093246;28;19935;-66
2022/05/24 05:49:41;;;;;;;;;;;;;;;12.66;77.04;100158.16;5092692;28;19922;-66
2022/05/24 05:52:07;;;;;;;;;;;;;;;12.69;76.98;100165.06;5094102;28;20281;-66
2022/05/24 05:54:34;;;;;;;;;;;;;;;12.74;76.56;100168.22;5094620;28;19924;-66
